Time;durP1;ratioP1;P1;durP2;ratioP2;P2;SDS_P1;SDS_P2;PMS_P1;PMS_P2;Temp;Humidity;BMP_temperature;BMP_pressure;BME280_temperature;BME280_humidity;BME280_pressure;Samples;Min_cycle;Max_cycle;Signal;HPM_P1;HPM_P2
2021/01/22 00:02:17;;;;;;;;;;;;;;;;;;5068745;28;19928;-68
2021/01/22 00:04:43;;;;;;;;;;;;;;;;;;5067935;28;19979;-68
2021/01/22 00:07:10;;;;;;;;;;;;;;;;;;5059439;28;19924;-68
2021/01/22 00:09:36;;;;;;;;;;;;;;;;;;5076267;28;20023;-69
2021/01/22 00:12:03;;;;;;;;;;;;;;;;;;5077040;28;20023;-69
2021/01/22 00:14:29;;;;;;;;;;;;;;;;;;5075742;28;20365;-69
2021/01/22 00:16:56;;;;;;;;;;;;;;;;;;5074358;28;20384;-69
2021/01/22 00:19:22;;;;;;;;;;;;;;;;;;5064842;28;19925;-69
2021/01/22 00:21:49;;;;;;;;;;;;;;;;;;5072740;28;20464;-69
2021/01/22 00:24:15;;;;;;;;;;;;;;;;;;5077113;28;19956;-68
2021/01/22 00:26:42;;;;;;;;;;;;;;;;;;5072015;28;20372;-69
2021/01/22 00:29:08;;;;;;;;;;;;;;;;;;5073717;28;19925;-69
2021/01/22 00:31:35;;;;;;;;;;;;;;;;;;5071450;28;20028;-69
2021/01/22 00:34:01;;;;;;;;;;;;;;;;;;5073111;28;19925;-68
2021/01/22 00:36:28;;;;;;;;;;;;;;;;;;5077512;28;19929;-67
2021/01/22 00:38:54;;;;;;;;;;;;;;;;;;5078962;28;19928;-68
2021/01/22 00:41:21;;;;;;;;;;;;;;;;;;5074566;28;20347;-68
2021/01/22 00:43:47;;;;;;;;;;;;;;;;;;5068433;28;19931;-67
2021/01/22 00:46:14;;;;;;;;;;;;;;;;;;5106726;22;20004;-67
2021/01/22 00:48:40;;;;;;;;;;;;;;;;;;5113037;28;19931;-68
2021/01/22 00:51:06;;;;;;;;;;;;;;;;;;5113672;27;19924;-68
2021/01/22 00:53:33;;;;;;;;;;;;;;;;;;5113169;27;19960;-68
2021/01/22 00:55:59;;;;;;;;;;;;;;;;;;5113269;28;20533;-67
2021/01/22 00:58:26;;;;;;;;;;;;;;;;;;5113239;27;19976;-68
2021/01/22 01:00:52;;;;;;;;;;;;;;;;;;5113429;28;19924;-68
2021/01/22 01:03:19;;;;;;;;;;;;;;;;;;5112751;28;20011;-68
2021/01/22 01:05:45;;;;;;;;;;;;;;;;;;5113149;28;20320;-68
2021/01/22 01:08:12;;;;;;;;;;;;;;;;;;5112734;28;20393;-68
2021/01/22 01:10:38;;;;;;;;;;;;;;;;;;5113484;28;20026;-67
2021/01/22 01:13:05;;;;;;;;;;;;;;;;;;5112419;28;19924;-68
2021/01/22 01:15:31;;;;;;;;;;;;;;;;;;5112961;28;19969;-67
2021/01/22 01:17:58;;;;;;;;;;;;;;;;;;5113196;27;19924;-67
2021/01/22 01:20:24;;;;;;;;;;;;;;;;;;5112803;28;19979;-68
2021/01/22 01:22:50;;;;;;;;;;;;;;;;;;5112770;28;19930;-67
2021/01/22 01:25:17;;;;;;;;;;;;;;;;;;5113170;28;19927;-68
2021/01/22 01:27:43;;;;;;;;;;;;;;;;;;5111345;28;19976;-68
2021/01/22 01:30:10;;;;;;;;;;;;;;;;;;5113910;28;19923;-68
2021/01/22 01:32:36;;;;;;;;;;;;;;;;;;5112870;28;19947;-68
2021/01/22 01:35:03;;;;;;;;;;;;;;;;;;5111906;28;20348;-67
2021/01/22 01:37:29;;;;;;;;;;;;;;;;;;5113316;28;20278;-68
2021/01/22 01:39:55;;;;;;;;;;;;;;;;;;5112355;28;20384;-68
2021/01/22 01:42:22;;;;;;;;;;;;;;;;;;5112612;27;19935;-68
2021/01/22 01:44:48;;;;;;;;;;;;;;;;;;5111752;28;19928;-67
2021/01/22 01:47:15;;;;;;;;;;;;;;;;;;5111829;28;19930;-67
2021/01/22 01:49:41;;;;;;;;;;;;;;;;;;5113245;28;19927;-68
2021/01/22 01:52:08;;;;;;;;;;;;;;;;;;5112696;28;19968;-67
2021/01/22 01:54:34;;;;;;;;;;;;;;;;;;5112799;28;20019;-68
2021/01/22 01:57:00;;;;;;;;;;;;;;;;;;5109542;28;20307;-68
2021/01/22 01:59:27;;;;;;;;;;;;;;;;;;5107606;28;20395;-67
2021/01/22 02:01:53;;;;;;;;;;;;;;;;;;5112253;28;19954;-68
2021/01/22 02:04:20;;;;;;;;;;;;;;;;;;5111684;28;19930;-67
2021/01/22 02:06:46;;;;;;;;;;;;;;;;;;5110809;28;20309;-67
2021/01/22 02:09:13;;;;;;;;;;;;;;;;;;5112181;28;19928;-67
2021/01/22 02:11:39;;;;;;;;;;;;;;;;;;5110503;27;20437;-68
2021/01/22 02:14:06;;;;;;;;;;;;;;;;;;5105940;28;19930;-67
2021/01/22 02:16:32;;;;;;;;;;;;;;;;;;5111671;28;19923;-67
2021/01/22 02:18:59;;;;;;;;;;;;;;;;;;5111799;28;19950;-67
2021/01/22 02:21:25;;;;;;;;;;;;;;;;;;5111075;27;20399;-68
2021/01/22 02:23:52;;;;;;;;;;;;;;;;;;5111915;28;19924;-68
2021/01/22 02:26:18;;;;;;;;;;;;;;;;;;5106952;28;20383;-68
2021/01/22 02:28:45;;;;;;;;;;;;;;;;;;5112792;28;19935;-68
2021/01/22 02:31:11;;;;;;;;;;;;;;;;;;5110418;28;19924;-67
2021/01/22 02:33:38;;;;;;;;;;;;;;;;;;5111865;28;20284;-67
2021/01/22 02:36:04;;;;;;;;;;;;;;;;;;5111099;27;19924;-67
2021/01/22 02:38:30;;;;;;;;;;;;;;;;;;5111911;28;19934;-67
2021/01/22 02:40:58;;;;;;;;;;;;;;;;;;5110076;28;19985;-68
2021/01/22 02:43:24;;;;;;;;;;;;;;;;;;5109391;28;19927;-67
2021/01/22 02:45:51;;;;;;;;;;;;;;;;;;5109335;28;19930;-67
2021/01/22 02:48:17;;;;;;;;;;;;;;;;;;5109301;28;20314;-67
2021/01/22 02:50:47;;;;;;;;;;;;;;;;;;5112033;28;20142;-68
2021/01/22 02:53:13;;;;;;;;;;;;;;;;;;5111775;28;20011;-67
2021/01/22 02:55:40;;;;;;;;;;;;;;;;;;5109203;28;19924;-67
2021/01/22 02:58:06;;;;;;;;;;;;;;;;;;5112094;28;20349;-68
2021/01/22 03:00:33;;;;;;;;;;;;;;;;;;5110978;27;19923;-66
2021/01/22 03:02:59;;;;;;;;;;;;;;;;;;5111261;28;19928;-67
2021/01/22 03:05:26;;;;;;;;;;;;;;;;;;5111908;28;19924;-67
2021/01/22 03:07:52;;;;;;;;;;;;;;;;;;5109741;28;19923;-67
2021/01/22 03:10:19;;;;;;;;;;;;;;;;;;5107703;28;19924;-68
2021/01/22 03:12:45;;;;;;;;;;;;;;;;;;5110493;28;19924;-67
2021/01/22 03:15:12;;;;;;;;;;;;;;;;;;5110751;28;19931;-67
2021/01/22 03:17:38;;;;;;;;;;;;;;;;;;5106459;28;19923;-67
2021/01/22 03:20:04;;;;;;;;;;;;;;;;;;5110918;28;19949;-67
2021/01/22 03:22:31;;;;;;;;;;;;;;;;;;5110999;28;20312;-67
2021/01/22 03:24:57;;;;;;;;;;;;;;;;;;5112750;28;19923;-67
2021/01/22 03:27:24;;;;;;;;;;;;;;;;;;5104425;28;19943;-68
2021/01/22 03:29:50;;;;;;;;;;;;;;;;;;5111647;28;19924;-67
2021/01/22 03:32:17;;;;;;;;;;;;;;;;;;5111975;28;19931;-68
2021/01/22 03:34:43;;;;;;;;;;;;;;;;;;5113269;28;19932;-67
2021/01/22 03:37:10;;;;;;;;;;;;;;;;;;5112068;28;19946;-67
2021/01/22 03:39:36;;;;;;;;;;;;;;;;;;5111082;28;19924;-67
2021/01/22 03:42:03;;;;;;;;;;;;;;;;;;5106994;28;20372;-67
2021/01/22 03:44:29;;;;;;;;;;;;;;;;;;5111782;28;20012;-68
2021/01/22 03:46:56;;;;;;;;;;;;;;;;;;5110617;28;20379;-67
2021/01/22 03:49:22;;;;;;;;;;;;;;;;;;5111840;28;19930;-68
2021/01/22 03:51:49;;;;;;;;;;;;;;;;;;5111012;28;19939;-67
2021/01/22 03:54:15;;;;;;;;;;;;;;;;;;5111771;28;19924;-67
2021/01/22 03:56:42;;;;;;;;;;;;;;;;;;5110693;28;19924;-67
2021/01/22 03:59:08;;;;;;;;;;;;;;;;;;5114942;28;19931;-68
2021/01/22 04:01:35;;;;;;;;;;;;;;;;;;5116030;27;19923;-67
2021/01/22 04:04:01;;;;;;;;;;;;;;;;;;5115339;28;19923;-67
2021/01/22 04:06:28;;;;;;;;;;;;;;;;;;5115007;27;19939;-68
2021/01/22 04:08:54;;;;;;;;;;;;;;;;;;5114018;28;19932;-68
2021/01/22 04:11:20;;;;;;;;;;;;;;;;;;5114851;28;19946;-67
2021/01/22 04:13:48;;;;;;;;;;;;;;;;;;5114828;28;19924;-68
2021/01/22 04:16:15;;;;;;;;;;;;;;;;;;5114689;28;20122;-68
2021/01/22 04:18:41;;;;;;;;;;;;;;;;;;5114315;28;19938;-67
2021/01/22 04:21:08;;;;;;;;;;;;;;;;;;5114315;28;20324;-68
2021/01/22 04:23:34;;;;;;;;;;;;;;;;;;5113918;28;19934;-67
2021/01/22 04:26:00;;;;;;;;;;;;;;;;;;5114080;28;19968;-67
2021/01/22 04:28:27;;;;;;;;;;;;;;;;;;5106273;27;20303;-68
2021/01/22 04:30:53;;;;;;;;;;;;;;;;;;5114328;27;19942;-68
2021/01/22 04:33:20;;;;;;;;;;;;;;;;;;5114349;27;20417;-67
2021/01/22 04:35:46;;;;;;;;;;;;;;;;;;5114257;28;19924;-68
2021/01/22 04:38:13;;;;;;;;;;;;;;;;;;5110538;28;19935;-68
2021/01/22 04:40:39;;;;;;;;;;;;;;;;;;5113708;28;20349;-67
2021/01/22 04:43:06;;;;;;;;;;;;;;;;;;5114003;28;20379;-67
2021/01/22 04:45:32;;;;;;;;;;;;;;;;;;5111780;28;19968;-68
2021/01/22 04:47:59;;;;;;;;;;;;;;;;;;5107925;27;19927;-69
2021/01/22 04:50:25;;;;;;;;;;;;;;;;;;5107593;28;19988;-68
2021/01/22 04:52:52;;;;;;;;;;;;;;;;;;5113991;28;19932;-67
2021/01/22 04:55:18;;;;;;;;;;;;;;;;;;5114021;28;19924;-68
2021/01/22 04:57:45;;;;;;;;;;;;;;;;;;5113584;28;19927;-67
2021/01/22 05:00:11;;;;;;;;;;;;;;;;;;5114081;28;19924;-67
2021/01/22 05:02:38;;;;;;;;;;;;;;;;;;5113509;28;20018;-67
2021/01/22 05:05:04;;;;;;;;;;;;;;;;;;5113486;28;19928;-67
2021/01/22 05:07:31;;;;;;;;;;;;;;;;;;5113424;27;19924;-67
2021/01/22 05:09:57;;;;;;;;;;;;;;;;;;5112983;28;20329;-67
2021/01/22 05:12:24;;;;;;;;;;;;;;;;;;5110792;28;19927;-68
2021/01/22 05:14:50;;;;;;;;;;;;;;;;;;5111308;28;19931;-68
2021/01/22 05:17:17;;;;;;;;;;;;;;;;;;5113853;28;19924;-68
2021/01/22 05:19:43;;;;;;;;;;;;;;;;;;5112875;28;19924;-67
2021/01/22 05:22:10;;;;;;;;;;;;;;;;;;5110777;27;19934;-68
2021/01/22 05:24:36;;;;;;;;;;;;;;;;;;5113113;28;19924;-67
2021/01/22 05:27:03;;;;;;;;;;;;;;;;;;5113399;28;19995;-68
2021/01/22 05:29:29;;;;;;;;;;;;;;;;;;5113192;28;19965;-68
2021/01/22 05:31:56;;;;;;;;;;;;;;;;;;5112850;28;19992;-68
2021/01/22 05:34:22;;;;;;;;;;;;;;;;;;5112510;28;19931;-68
2021/01/22 05:36:48;;;;;;;;;;;;;;;;;;5113083;28;20395;-68
2021/01/22 05:39:15;;;;;;;;;;;;;;;;;;5110925;28;20223;-68
2021/01/22 05:41:41;;;;;;;;;;;;;;;;;;5112431;28;19932;-68
2021/01/22 05:44:08;;;;;;;;;;;;;;;;;;5112622;28;19969;-67
2021/01/22 05:46:34;;;;;;;;;;;;;;;;;;5112217;28;19924;-68
2021/01/22 05:49:01;;;;;;;;;;;;;;;;;;5112321;28;19977;-68
2021/01/22 05:51:27;;;;;;;;;;;;;;;;;;5110443;28;19932;-68
2021/01/22 05:53:54;;;;;;;;;;;;;;;;;;5111831;28;19949;-67
2021/01/22 05:56:20;;;;;;;;;;;;;;;;;;5112537;28;19924;-67
2021/01/22 05:58:47;;;;;;;;;;;;;;;;;;5112239;28;20240;-67
2021/01/22 06:01:13;;;;;;;;;;;;;;;;;;5112678;28;19928;-67
2021/01/22 06:03:40;;;;;;;;;;;;;;;;;;5110689;28;19924;-67
2021/01/22 06:06:06;;;;;;;;;;;;;;;;;;5112846;27;20030;-68
2021/01/22 06:08:33;;;;;;;;;;;;;;;;;;5112561;27;19923;-67
2021/01/22 06:10:59;;;;;;;;;;;;;;;;;;5112176;28;19928;-67
2021/01/22 06:13:26;;;;;;;;;;;;;;;;;;5112567;28;20322;-68
2021/01/22 06:15:52;;;;;;;;;;;;;;;;;;5111409;28;19931;-67
2021/01/22 06:18:19;;;;;;;;;;;;;;;;;;5108601;28;19923;-67
2021/01/22 06:20:45;;;;;;;;;;;;;;;;;;5111111;28;19924;-67
2021/01/22 06:23:12;;;;;;;;;;;;;;;;;;5112195;28;19924;-67
2021/01/22 06:25:38;;;;;;;;;;;;;;;;;;5110029;27;19947;-68
2021/01/22 06:28:05;;;;;;;;;;;;;;;;;;5111760;28;19982;-67
2021/01/22 06:30:31;;;;;;;;;;;;;;;;;;5111824;28;19932;-68
2021/01/22 06:32:58;;;;;;;;;;;;;;;;;;5112299;28;19930;-67
2021/01/22 06:35:24;;;;;;;;;;;;;;;;;;5112061;27;19935;-69
2021/01/22 06:37:50;;;;;;;;;;;;;;;;;;5113046;28;19927;-69
2021/01/22 06:40:17;;;;;;;;;;;;;;;;;;5112822;27;20057;-68
2021/01/22 06:42:43;;;;;;;;;;;;;;;;;;5110189;28;19928;-69
2021/01/22 06:45:10;;;;;;;;;;;;;;;;;;5105088;28;20003;-69
2021/01/22 06:47:36;;;;;;;;;;;;;;;;;;5106911;28;20112;-70
2021/01/22 06:50:03;;;;;;;;;;;;;;;;;;5111754;27;20356;-70
2021/01/22 06:52:31;;;;;;;;;;;;;;;;;;5105212;27;19927;-71
2021/01/22 06:54:57;;;;;;;;;;;;;;;;;;5104923;28;19927;-71
2021/01/22 06:57:24;;;;;;;;;;;;;;;;;;5111464;28;19927;-71
2021/01/22 06:59:50;;;;;;;;;;;;;;;;;;5105664;28;19923;-70
2021/01/22 07:02:17;;;;;;;;;;;;;;;;;;5107654;28;19923;-71
2021/01/22 07:04:43;;;;;;;;;;;;;;;;;;5107755;28;19930;-70
2021/01/22 07:07:10;;;;;;;;;;;;;;;;;;5106264;28;19999;-70
2021/01/22 07:09:36;;;;;;;;;;;;;;;;;;5112896;28;19924;-70
2021/01/22 07:12:03;;;;;;;;;;;;;;;;;;5110546;28;19930;-73
2021/01/22 07:14:29;;;;;;;;;;;;;;;;;;5101951;28;19942;-70
2021/01/22 07:16:56;;;;;;;;;;;;;;;;;;5103798;28;20401;-70
2021/01/22 07:19:22;;;;;;;;;;;;;;;;;;5111003;28;19935;-71
2021/01/22 07:21:49;;;;;;;;;;;;;;;;;;5111115;27;20328;-70
2021/01/22 07:24:18;;;;;;;;;;;;;;;;;;5104505;28;20011;-70
2021/01/22 07:26:44;;;;;;;;;;;;;;;;;;5109636;28;19924;-71
2021/01/22 07:29:11;;;;;;;;;;;;;;;;;;5110930;28;19924;-71
2021/01/22 07:31:37;;;;;;;;;;;;;;;;;;5112141;28;19982;-71
2021/01/22 07:34:04;;;;;;;;;;;;;;;;;;5109706;28;20386;-69
2021/01/22 07:36:30;;;;;;;;;;;;;;;;;;5110556;28;19924;-70
2021/01/22 07:38:57;;;;;;;;;;;;;;;;;;5100538;28;19954;-71
2021/01/22 07:41:23;;;;;;;;;;;;;;;;;;5108668;28;19980;-71
2021/01/22 07:43:50;;;;;;;;;;;;;;;;;;5109539;28;19923;-71
2021/01/22 07:46:16;;;;;;;;;;;;;;;;;;5110167;28;19927;-70
2021/01/22 07:48:43;;;;;;;;;;;;;;;;;;5105500;28;19930;-72
2021/01/22 07:51:09;;;;;;;;;;;;;;;;;;5109051;28;19924;-71
2021/01/22 07:53:36;;;;;;;;;;;;;;;;;;5104043;28;19924;-71
2021/01/22 07:56:02;;;;;;;;;;;;;;;;;;5107848;28;19923;-71
2021/01/22 07:58:29;;;;;;;;;;;;;;;;;;5110407;28;19928;-72
2021/01/22 08:00:55;;;;;;;;;;;;;;;;;;5108118;28;19927;-72
2021/01/22 08:03:22;;;;;;;;;;;;;;;;;;5106116;28;19924;-72
2021/01/22 08:05:48;;;;;;;;;;;;;;;;;;5112736;28;19924;-70
2021/01/22 08:08:15;;;;;;;;;;;;;;;;;;5103234;28;19931;-71
2021/01/22 08:10:41;;;;;;;;;;;;;;;;;;5112422;28;20294;-71
2021/01/22 08:13:08;;;;;;;;;;;;;;;;;;5109571;28;19924;-71
2021/01/22 08:15:34;;;;;;;;;;;;;;;;;;5109611;28;20313;-71
2021/01/22 08:18:01;;;;;;;;;;;;;;;;;;5112263;28;19928;-71
2021/01/22 08:20:27;;;;;;;;;;;;;;;;;;5112795;28;19924;-71
2021/01/22 08:22:54;;;;;;;;;;;;;;;;;;5107091;28;20019;-73
2021/01/22 08:25:20;;;;;;;;;;;;;;;;;;5109226;28;20319;-72
2021/01/22 08:27:47;;;;;;;;;;;;;;;;;;5112225;28;19946;-75
2021/01/22 08:30:13;;;;;;;;;;;;;;;;;;5109849;28;20010;-71
2021/01/22 08:32:40;;;;;;;;;;;;;;;;;;5110449;28;19923;-72
2021/01/22 08:35:06;;;;;;;;;;;;;;;;;;5107674;28;19923;-71
2021/01/22 08:37:33;;;;;;;;;;;;;;;;;;5108969;28;19924;-72
2021/01/22 08:39:59;;;;;;;;;;;;;;;;;;5106946;28;19924;-72
2021/01/22 08:42:26;;;;;;;;;;;;;;;;;;5108045;28;20328;-72
2021/01/22 08:44:52;;;;;;;;;;;;;;;;;;5112430;28;19924;-72
2021/01/22 08:47:19;;;;;;;;;;;;;;;;;;5111459;28;19923;-70
2021/01/22 08:49:45;;;;;;;;;;;;;;;;;;5112245;27;19930;-72
2021/01/22 08:52:11;;;;;;;;;;;;;;;;;;5115123;28;19930;-69
2021/01/22 08:54:38;;;;;;;;;;;;;;;;;;5113684;28;19924;-69
2021/01/22 08:57:04;;;;;;;;;;;;;;;;;;5111457;28;19932;-70
2021/01/22 08:59:31;;;;;;;;;;;;;;;;;;5110681;28;19931;-71
2021/01/22 09:01:58;;;;;;;;;;;;;;;;;;5110340;28;19924;-70
2021/01/22 09:04:24;;;;;;;;;;;;;;;;;;5112887;28;19924;-71
2021/01/22 09:06:51;;;;;;;;;;;;;;;;;;5113550;28;19955;-71
2021/01/22 09:09:17;;;;;;;;;;;;;;;;;;5110274;28;20398;-71
2021/01/22 09:11:43;;;;;;;;;;;;;;;;;;5113384;28;19930;-70
2021/01/22 09:14:11;;;;;;;;;;;;;;;;;;5108310;27;20428;-71
2021/01/22 09:16:37;;;;;;;;;;;;;;;;;;5111905;28;19952;-71
2021/01/22 09:19:04;;;;;;;;;;;;;;;;;;5114000;28;19951;-70
2021/01/22 09:21:30;;;;;;;;;;;;;;;;;;5107291;28;20447;-70
2021/01/22 09:23:57;;;;;;;;;;;;;;;;;;5112631;27;19924;-69
2021/01/22 09:26:23;;;;;;;;;;;;;;;;;;5112752;28;19970;-70
2021/01/22 09:28:50;;;;;;;;;;;;;;;;;;5113057;27;19924;-70
2021/01/22 09:31:16;;;;;;;;;;;;;;;;;;5112881;28;19930;-70
2021/01/22 09:33:43;;;;;;;;;;;;;;;;;;5110410;28;19928;-71
2021/01/22 09:36:09;;;;;;;;;;;;;;;;;;5109891;28;19930;-70
2021/01/22 09:38:36;;;;;;;;;;;;;;;;;;5113622;28;20275;-69
2021/01/22 09:41:03;;;;;;;;;;;;;;;;;;5104343;28;19939;-71
2021/01/22 09:43:29;;;;;;;;;;;;;;;;;;5110747;27;20343;-70
2021/01/22 09:45:57;;;;;;;;;;;;;;;;;;5112610;28;19930;-70
2021/01/22 09:48:25;;;;;;;;;;;;;;;;;;5108844;28;19980;-70
2021/01/22 09:50:51;;;;;;;;;;;;;;;;;;5114623;27;19923;-73
2021/01/22 09:53:18;;;;;;;;;;;;;;;;;;5110393;28;19923;-68
2021/01/22 09:55:44;;;;;;;;;;;;;;;;;;5112232;28;19927;-68
2021/01/22 09:58:11;;;;;;;;;;;;;;;;;;5110619;28;19927;-68
2021/01/22 10:00:37;;;;;;;;;;;;;;;;;;5113944;28;19930;-69
2021/01/22 10:03:04;;;;;;;;;;;;;;;;;;5112406;28;20204;-70
2021/01/22 10:05:30;;;;;;;;;;;;;;;;;;5111371;28;19931;-68
2021/01/22 10:07:57;;;;;;;;;;;;;;;;;;5113248;28;19923;-68
2021/01/22 10:10:23;;;;;;;;;;;;;;;;;;5115832;27;19937;-68
2021/01/22 10:12:50;;;;;;;;;;;;;;;;;;5113075;28;19923;-67
2021/01/22 10:15:17;;;;;;;;;;;;;;;;;;5109891;28;19924;-67
2021/01/22 10:17:43;;;;;;;;;;;;;;;;;;5113873;27;19927;-69
2021/01/22 10:20:10;;;;;;;;;;;;;;;;;;5113073;28;19930;-67
2021/01/22 10:22:36;;;;;;;;;;;;;;;;;;5112531;28;19930;-67
2021/01/22 10:25:03;;;;;;;;;;;;;;;;;;5110573;28;19934;-67
2021/01/22 10:27:29;;;;;;;;;;;;;;;;;;5112424;28;19924;-69
2021/01/22 10:29:56;;;;;;;;;;;;;;;;;;5106970;28;19930;-67
2021/01/22 10:32:22;;;;;;;;;;;;;;;;;;5104163;28;20376;-67
2021/01/22 10:34:49;;;;;;;;;;;;;;;;;;5109172;28;19924;-69
2021/01/22 10:37:17;;;;;;;;;;;;;;;;;;5108861;28;19924;-68
2021/01/22 10:39:44;;;;;;;;;;;;;;;;;;5112282;28;20410;-69
2021/01/22 10:42:10;;;;;;;;;;;;;;;;;;5108388;28;19923;-69
2021/01/22 10:44:37;;;;;;;;;;;;;;;;;;5110918;28;19995;-66
2021/01/22 10:47:03;;;;;;;;;;;;;;;;;;5111684;28;19928;-67
2021/01/22 10:49:30;;;;;;;;;;;;;;;;;;5112670;28;19923;-68
2021/01/22 10:51:56;;;;;;;;;;;;;;;;;;5109211;28;20280;-68
2021/01/22 10:54:24;;;;;;;;;;;;;;;;;;5110536;28;20633;-67
2021/01/22 10:56:51;;;;;;;;;;;;;;;;;;5114417;28;19928;-67
2021/01/22 10:59:17;;;;;;;;;;;;;;;;;;5112124;28;20023;-67
2021/01/22 11:01:44;;;;;;;;;;;;;;;;;;5112628;28;19946;-67
2021/01/22 11:04:10;;;;;;;;;;;;;;;;;;5112494;27;20014;-67
2021/01/22 11:06:37;;;;;;;;;;;;;;;;;;5112041;28;19928;-67
2021/01/22 11:09:03;;;;;;;;;;;;;;;;;;5112785;28;20275;-67
2021/01/22 11:11:30;;;;;;;;;;;;;;;;;;5112570;28;20364;-68
2021/01/22 11:13:56;;;;;;;;;;;;;;;;;;5107718;28;19941;-67
2021/01/22 11:16:23;;;;;;;;;;;;;;;;;;5110292;28;20006;-68
2021/01/22 11:18:49;;;;;;;;;;;;;;;;;;5111343;28;20473;-68
2021/01/22 11:21:16;;;;;;;;;;;;;;;;;;5100089;28;19924;-67
2021/01/22 11:23:42;;;;;;;;;;;;;;;;;;5108864;28;20521;-69
2021/01/22 11:26:09;;;;;;;;;;;;;;;;;;5103815;28;20023;-67
2021/01/22 11:28:35;;;;;;;;;;;;;;;;;;5109917;28;20019;-68
2021/01/22 11:31:02;;;;;;;;;;;;;;;;;;5110639;28;20427;-68
2021/01/22 11:33:29;;;;;;;;;;;;;;;;;;5108715;28;20707;-67
2021/01/22 11:35:55;;;;;;;;;;;;;;;;;;5106172;28;19976;-67
2021/01/22 11:38:22;;;;;;;;;;;;;;;;;;5111331;28;19924;-68
2021/01/22 11:40:48;;;;;;;;;;;;;;;;;;5106667;28;20347;-68
2021/01/22 11:43:15;;;;;;;;;;;;;;;;;;5108670;28;19923;-68
2021/01/22 11:45:41;;;;;;;;;;;;;;;;;;5105248;28;19928;-67
2021/01/22 11:48:07;;;;;;;;;;;;;;;;;;5105866;28;19928;-70
2021/01/22 11:50:34;;;;;;;;;;;;;;;;;;5104576;28;19924;-68
2021/01/22 11:53:00;;;;;;;;;;;;;;;;;;5103515;28;20027;-67
2021/01/22 11:55:27;;;;;;;;;;;;;;;;;;5106245;28;19924;-68
2021/01/22 11:57:53;;;;;;;;;;;;;;;;;;5110189;28;19927;-70
2021/01/22 12:00:20;;;;;;;;;;;;;;;;;;5107171;28;19923;-68
2021/01/22 12:02:46;;;;;;;;;;;;;;;;;;5107892;28;19968;-69
2021/01/22 12:05:13;;;;;;;;;;;;;;;;;;5106136;28;19931;-68
2021/01/22 12:07:39;;;;;;;;;;;;;;;;;;5106885;28;19923;-68
2021/01/22 12:10:06;;;;;;;;;;;;;;;;;;5107889;28;20019;-68
2021/01/22 12:12:32;;;;;;;;;;;;;;;;;;5111364;28;19934;-67
2021/01/22 12:14:59;;;;;;;;;;;;;;;;;;5110626;28;19946;-67
2021/01/22 12:17:26;;;;;;;;;;;;;;;;;;5108972;28;20272;-67
2021/01/22 12:19:52;;;;;;;;;;;;;;;;;;5115287;28;20018;-67
2021/01/22 12:22:18;;;;;;;;;;;;;;;;;;5113572;28;19930;-68
2021/01/22 12:24:45;;;;;;;;;;;;;;;;;;5114547;28;20462;-68
2021/01/22 12:27:11;;;;;;;;;;;;;;;;;;5106320;28;20015;-66
2021/01/22 12:29:38;;;;;;;;;;;;;;;;;;5115890;28;19934;-64
2021/01/22 12:32:04;;;;;;;;;;;;;;;;;;5109920;28;20011;-64
2021/01/22 12:34:31;;;;;;;;;;;;;;;;;;5111218;28;20302;-64
2021/01/22 12:36:57;;;;;;;;;;;;;;;;;;5106417;28;20031;-64
2021/01/22 12:39:24;;;;;;;;;;;;;;;;;;5113057;28;20018;-65
2021/01/22 12:41:50;;;;;;;;;;;;;;;;;;5113068;28;20594;-65
2021/01/22 12:44:17;;;;;;;;;;;;;;;;;;5103215;27;19935;-66
2021/01/22 12:46:43;;;;;;;;;;;;;;;;;;5106690;28;20318;-66
2021/01/22 12:49:10;;;;;;;;;;;;;;;;;;5106116;28;20019;-67
2021/01/22 12:51:36;;;;;;;;;;;;;;;;;;5114161;28;19923;-67
2021/01/22 12:54:03;;;;;;;;;;;;;;;;;;5107910;28;20362;-67
2021/01/22 12:56:29;;;;;;;;;;;;;;;;;;5106343;28;20432;-67
2021/01/22 12:58:56;;;;;;;;;;;;;;;;;;5113519;28;20014;-67
2021/01/22 13:01:22;;;;;;;;;;;;;;;;;;5112402;27;19924;-67
2021/01/22 13:03:49;;;;;;;;;;;;;;;;;;5117347;27;20296;-70
2021/01/22 13:06:15;;;;;;;;;;;;;;;;;;5107742;28;19951;-67
2021/01/22 13:08:42;;;;;;;;;;;;;;;;;;5112553;27;19924;-67
2021/01/22 13:11:08;;;;;;;;;;;;;;;;;;5109911;28;19928;-67
2021/01/22 13:13:36;;;;;;;;;;;;;;;;;;5110304;27;19938;-67
2021/01/22 13:16:02;;;;;;;;;;;;;;;;;;5111108;28;20138;-68
2021/01/22 13:18:29;;;;;;;;;;;;;;;;;;5106324;28;19931;-68
2021/01/22 13:20:55;;;;;;;;;;;;;;;;;;5113102;27;19924;-68
2021/01/22 13:23:22;;;;;;;;;;;;;;;;;;5113038;27;19924;-67
2021/01/22 13:25:48;;;;;;;;;;;;;;;;;;5108749;27;20026;-68
2021/01/22 13:28:15;;;;;;;;;;;;;;;;;;5112350;28;20008;-67
2021/01/22 13:30:41;;;;;;;;;;;;;;;;;;5106820;28;19938;-68
2021/01/22 13:33:10;;;;;;;;;;;;;;;;;;5110209;28;19938;-68
2021/01/22 13:35:36;;;;;;;;;;;;;;;;;;5107504;28;19924;-67
2021/01/22 13:38:03;;;;;;;;;;;;;;;;;;5112830;28;19934;-67
2021/01/22 13:40:29;;;;;;;;;;;;;;;;;;5104821;28;19924;-66
2021/01/22 13:42:56;;;;;;;;;;;;;;;;;;5111816;28;19938;-67
2021/01/22 13:45:24;;;;;;;;;;;;;;;;;;5109240;28;19976;-68
2021/01/22 13:47:51;;;;;;;;;;;;;;;;;;5109541;28;19924;-67
2021/01/22 13:50:17;;;;;;;;;;;;;;;;;;5112017;28;19996;-67
2021/01/22 13:52:44;;;;;;;;;;;;;;;;;;5108175;28;19946;-67
2021/01/22 13:55:10;;;;;;;;;;;;;;;;;;5105082;28;19934;-68
2021/01/22 13:57:37;;;;;;;;;;;;;;;;;;5111964;28;20380;-67
2021/01/22 14:00:03;;;;;;;;;;;;;;;;;;5107271;28;20003;-67
2021/01/22 14:02:30;;;;;;;;;;;;;;;;;;5108943;27;20276;-67
2021/01/22 14:04:56;;;;;;;;;;;;;;;;;;5108471;28;19969;-67
2021/01/22 14:07:23;;;;;;;;;;;;;;;;;;5110740;28;19927;-68
2021/01/22 14:09:49;;;;;;;;;;;;;;;;;;5108261;28;20311;-66
2021/01/22 14:12:16;;;;;;;;;;;;;;;;;;5101673;28;19923;-68
2021/01/22 14:14:42;;;;;;;;;;;;;;;;;;5106745;28;19934;-68
2021/01/22 14:17:09;;;;;;;;;;;;;;;;;;5103255;28;20393;-67
2021/01/22 14:19:35;;;;;;;;;;;;;;;;;;5105774;28;19923;-67
2021/01/22 14:22:02;;;;;;;;;;;;;;;;;;5104873;28;19928;-67
2021/01/22 14:24:28;;;;;;;;;;;;;;;;;;5106640;28;19934;-68
2021/01/22 14:26:55;;;;;;;;;;;;;;;;;;5106967;28;19923;-66
2021/01/22 14:29:21;;;;;;;;;;;;;;;;;;5101148;28;21608;-67
2021/01/22 14:31:48;;;;;;;;;;;;;;;;;;5106075;28;20031;-67
2021/01/22 14:34:14;;;;;;;;;;;;;;;;;;5102317;28;20298;-67
2021/01/22 14:36:41;;;;;;;;;;;;;;;;;;5106297;28;19924;-67
2021/01/22 14:39:07;;;;;;;;;;;;;;;;;;5104067;28;20307;-67
2021/01/22 14:41:34;;;;;;;;;;;;;;;;;;5106234;28;19930;-67
2021/01/22 14:44:00;;;;;;;;;;;;;;;;;;5106190;28;20787;-66
2021/01/22 14:46:27;;;;;;;;;;;;;;;;;;5107118;28;20303;-67
2021/01/22 14:48:53;;;;;;;;;;;;;;;;;;5110368;28;19977;-67
2021/01/22 14:51:20;;;;;;;;;;;;;;;;;;5105768;28;19923;-67
2021/01/22 14:53:46;;;;;;;;;;;;;;;;;;5107461;28;20344;-66
2021/01/22 14:56:13;;;;;;;;;;;;;;;;;;5106837;28;20047;-66
2021/01/22 14:58:39;;;;;;;;;;;;;;;;;;5104544;28;20031;-65
2021/01/22 15:01:06;;;;;;;;;;;;;;;;;;5103944;28;20371;-66
2021/01/22 15:03:32;;;;;;;;;;;;;;;;;;5105326;28;19932;-66
2021/01/22 15:05:59;;;;;;;;;;;;;;;;;;5110714;28;19945;-66
2021/01/22 15:08:25;;;;;;;;;;;;;;;;;;5108125;28;20388;-67
2021/01/22 15:10:52;;;;;;;;;;;;;;;;;;5112220;28;19970;-68
2021/01/22 15:13:18;;;;;;;;;;;;;;;;;;5112166;28;20347;-67
2021/01/22 15:15:45;;;;;;;;;;;;;;;;;;5105945;28;19924;-67
2021/01/22 15:18:11;;;;;;;;;;;;;;;;;;5111945;28;19954;-67
2021/01/22 15:20:38;;;;;;;;;;;;;;;;;;5112916;28;20292;-68
2021/01/22 15:23:04;;;;;;;;;;;;;;;;;;5110836;28;19931;-68
2021/01/22 15:25:31;;;;;;;;;;;;;;;;;;5107616;28;20314;-67
2021/01/22 15:27:57;;;;;;;;;;;;;;;;;;5110510;28;19924;-67
2021/01/22 15:30:24;;;;;;;;;;;;;;;;;;5109510;28;20014;-68
2021/01/22 15:32:52;;;;;;;;;;;;;;;;;;5110690;28;19927;-67
2021/01/22 15:35:19;;;;;;;;;;;;;;;;;;5111480;28;19923;-67
2021/01/22 15:37:45;;;;;;;;;;;;;;;;;;5112010;28;19930;-68
2021/01/22 15:40:12;;;;;;;;;;;;;;;;;;5110513;28;19930;-66
2021/01/22 15:42:39;;;;;;;;;;;;;;;;;;5109888;28;20022;-66
2021/01/22 15:45:05;;;;;;;;;;;;;;;;;;5108162;28;20008;-66
2021/01/22 15:47:32;;;;;;;;;;;;;;;;;;5109940;28;19931;-65
2021/01/22 15:49:58;;;;;;;;;;;;;;;;;;5096793;28;20302;-66
2021/01/22 15:52:25;;;;;;;;;;;;;;;;;;5109528;28;19934;-67
2021/01/22 15:54:51;;;;;;;;;;;;;;;;;;5116335;27;20006;-66
2021/01/22 15:57:18;;;;;;;;;;;;;;;;;;5112158;27;19924;-67
2021/01/22 15:59:44;;;;;;;;;;;;;;;;;;5106856;27;19931;-64
2021/01/22 16:02:11;;;;;;;;;;;;;;;;;;5117061;27;19923;-66
2021/01/22 16:04:38;;;;;;;;;;;;;;;;;;5115547;27;19930;-67
2021/01/22 16:07:04;;;;;;;;;;;;;;;;;;5117000;27;19930;-67
2021/01/22 16:09:31;;;;;;;;;;;;;;;;;;5115396;28;19974;-66
2021/01/22 16:11:57;;;;;;;;;;;;;;;;;;5118591;27;19923;-67
2021/01/22 16:14:24;;;;;;;;;;;;;;;;;;5117961;27;19924;-68
2021/01/22 16:16:51;;;;;;;;;;;;;;;;;;5117368;28;19932;-66
2021/01/22 16:19:17;;;;;;;;;;;;;;;;;;5117604;27;20372;-67
2021/01/22 16:21:44;;;;;;;;;;;;;;;;;;5106818;28;19971;-67
2021/01/22 16:24:10;;;;;;;;;;;;;;;;;;5110095;28;20022;-67
2021/01/22 16:26:37;;;;;;;;;;;;;;;;;;5118734;27;19971;-68
2021/01/22 16:29:03;;;;;;;;;;;;;;;;;;5105642;28;19924;-67
2021/01/22 16:31:30;;;;;;;;;;;;;;;;;;5118607;27;19927;-66
2021/01/22 16:33:56;;;;;;;;;;;;;;;;;;5113188;28;20364;-67
2021/01/22 16:36:23;;;;;;;;;;;;;;;;;;5113549;28;19928;-66
2021/01/22 16:38:49;;;;;;;;;;;;;;;;;;5118730;27;20409;-66
2021/01/22 16:41:16;;;;;;;;;;;;;;;;;;5118694;28;20014;-65